Time;durP1;ratioP1;P1;durP2;ratioP2;P2;SDS_P1;SDS_P2;PMS_P1;PMS_P2;Temp;Humidity;BMP_temperature;BMP_pressure;BME280_temperature;BME280_humidity;BME280_pressure;Samples;Min_cycle;Max_cycle;Signal;HPM_P1;HPM_P2
2022/03/08 00:00:55;;;;;;;5.20;4.70;;;;;;;;;;5001021;28;20033;-60
2022/03/08 00:03:21;;;;;;;3.92;3.58;;;;;;;;;;4999381;28;20112;-60
2022/03/08 00:05:46;;;;;;;4.95;4.45;;;;;;;;;;5002043;28;20415;-59
2022/03/08 00:08:12;;;;;;;5.10;4.63;;;;;;;;;;4999076;28;20065;-60
2022/03/08 00:10:38;;;;;;;5.63;4.85;;;;;;;;;;4998771;28;20038;-62
2022/03/08 00:13:03;;;;;;;5.75;4.43;;;;;;;;;;4999956;28;20033;-59
2022/03/08 00:15:29;;;;;;;4.72;4.32;;;;;;;;;;5000369;28;20107;-59
2022/03/08 00:17:55;;;;;;;4.85;4.35;;;;;;;;;;4999610;28;20026;-59
2022/03/08 00:20:21;;;;;;;5.00;4.53;;;;;;;;;;5000560;28;20084;-60
2022/03/08 00:22:47;;;;;;;5.65;5.15;;;;;;;;;;5000271;28;20026;-60
2022/03/08 00:25:13;;;;;;;4.60;3.88;;;;;;;;;;5001274;28;20065;-59
2022/03/08 00:27:45;;;;;;;4.15;3.75;;;;;;;;;;5001040;28;20030;-59
2022/03/08 00:30:12;;;;;;;5.70;4.82;;;;;;;;;;5000692;28;20034;-60
2022/03/08 00:32:37;;;;;;;4.15;3.75;;;;;;;;;;4999532;28;20064;-59
2022/03/08 00:35:03;;;;;;;4.30;3.90;;;;;;;;;;5000454;28;20452;-66
2022/03/08 00:37:28;;;;;;;4.45;4.05;;;;;;;;;;4998995;28;20035;-65
2022/03/08 00:39:54;;;;;;;4.85;4.45;;;;;;;;;;4998673;28;20018;-65
2022/03/08 00:42:20;;;;;;;5.05;4.55;;;;;;;;;;4998893;28;20379;-65
2022/03/08 00:44:45;;;;;;;4.72;4.32;;;;;;;;;;5000508;28;20033;-66
2022/03/08 00:47:11;;;;;;;4.60;4.10;;;;;;;;;;5001624;28;20513;-66
2022/03/08 00:49:37;;;;;;;3.83;3.53;;;;;;;;;;4998120;28;20112;-65
2022/03/08 00:52:04;;;;;;;7.57;4.60;;;;;;;;;;4998652;28;20030;-65
2022/03/08 00:54:30;;;;;;;5.72;5.22;;;;;;;;;;5000742;28;20034;-65
2022/03/08 00:56:55;;;;;;;4.50;4.10;;;;;;;;;;5001098;28;20029;-65
2022/03/08 00:59:21;;;;;;;5.80;5.30;;;;;;;;;;4999364;28;20192;-59
2022/03/08 01:01:46;;;;;;;4.88;4.45;;;;;;;;;;4994448;28;20058;-58
2022/03/08 01:04:12;;;;;;;4.53;4.13;;;;;;;;;;4996912;28;20064;-60
2022/03/08 01:06:39;;;;;;;4.63;4.22;;;;;;;;;;4997638;28;20022;-60
2022/03/08 01:09:05;;;;;;;5.38;4.88;;;;;;;;;;4998543;28;20030;-60
2022/03/08 01:11:31;;;;;;;4.13;3.70;;;;;;;;;;4998931;28;20030;-60
2022/03/08 01:13:57;;;;;;;4.60;4.20;;;;;;;;;;4994747;28;20030;-59
2022/03/08 01:16:22;;;;;;;5.07;4.63;;;;;;;;;;4999182;28;20030;-60
2022/03/08 01:18:48;;;;;;;5.20;4.68;;;;;;;;;;4997924;28;20118;-59
2022/03/08 01:21:14;;;;;;;6.13;4.60;;;;;;;;;;4999782;28;20022;-60
2022/03/08 01:23:41;;;;;;;6.15;4.75;;;;;;;;;;5001810;28;20125;-60
2022/03/08 01:26:06;;;;;;;4.13;3.72;;;;;;;;;;5004378;28;20034;-60
2022/03/08 01:28:32;;;;;;;4.47;4.07;;;;;;;;;;5002404;28;20112;-60
2022/03/08 01:30:57;;;;;;;5.72;4.95;;;;;;;;;;5001265;28;20034;-60
2022/03/08 01:33:22;;;;;;;5.07;4.68;;;;;;;;;;5003285;28;20068;-59
2022/03/08 01:35:48;;;;;;;5.38;4.88;;;;;;;;;;5003283;28;20090;-57
2022/03/08 01:38:13;;;;;;;4.47;4.07;;;;;;;;;;5002113;28;20038;-60
2022/03/08 01:40:39;;;;;;;7.00;3.92;;;;;;;;;;5000604;28;20034;-60
2022/03/08 01:43:04;;;;;;;5.00;4.53;;;;;;;;;;5000908;28;20066;-60
2022/03/08 01:45:33;;;;;;;4.78;4.38;;;;;;;;;;5002390;28;20108;-59
2022/03/08 01:47:58;;;;;;;5.18;4.60;;;;;;;;;;5003227;28;20033;-57
2022/03/08 01:50:23;;;;;;;4.68;4.28;;;;;;;;;;5002011;28;20474;-59
2022/03/08 01:52:49;;;;;;;5.35;4.32;;;;;;;;;;5003344;28;20360;-59
2022/03/08 01:55:16;;;;;;;4.60;4.20;;;;;;;;;;5003147;28;20046;-59
2022/03/08 01:57:43;;;;;;;4.55;3.85;;;;;;;;;;5003195;28;20022;-61
2022/03/08 02:00:12;;;;;;;4.75;4.35;;;;;;;;;;5000229;28;20069;-60
2022/03/08 02:02:39;;;;;;;8.38;4.35;;;;;;;;;;5004350;28;20022;-58
2022/03/08 02:05:05;;;;;;;5.60;5.10;;;;;;;;;;5001842;28;20031;-59
2022/03/08 02:07:31;;;;;;;5.35;4.85;;;;;;;;;;5002463;28;20026;-60
2022/03/08 02:09:57;;;;;;;4.55;4.15;;;;;;;;;;5000587;28;20105;-60
2022/03/08 02:12:23;;;;;;;4.50;4.07;;;;;;;;;;5004043;28;20428;-58
2022/03/08 02:14:48;;;;;;;4.80;4.40;;;;;;;;;;5004227;28;20072;-58
2022/03/08 02:17:14;;;;;;;4.88;4.47;;;;;;;;;;5001787;28;20057;-58
2022/03/08 02:19:39;;;;;;;4.57;4.18;;;;;;;;;;5003703;28;20036;-59
2022/03/08 02:22:05;;;;;;;4.70;4.30;;;;;;;;;;5002849;28;20057;-58
2022/03/08 02:24:30;;;;;;;4.20;3.80;;;;;;;;;;4999032;28;20096;-58
2022/03/08 02:26:56;;;;;;;5.53;4.97;;;;;;;;;;5001633;28;20026;-58
2022/03/08 02:29:21;;;;;;;5.20;4.80;;;;;;;;;;5000496;28;20359;-58
2022/03/08 02:31:49;;;;;;;4.60;4.20;;;;;;;;;;4987399;28;20049;-58
2022/03/08 02:34:15;;;;;;;5.80;3.75;;;;;;;;;;5003159;28;20523;-58
2022/03/08 02:36:41;;;;;;;4.80;4.40;;;;;;;;;;5002899;28;20126;-58
2022/03/08 02:39:07;;;;;;;6.93;5.50;;;;;;;;;;5001329;28;20332;-58
2022/03/08 02:41:32;;;;;;;4.63;4.22;;;;;;;;;;5001783;28;20064;-58
2022/03/08 02:43:58;;;;;;;4.68;4.28;;;;;;;;;;5001567;28;20030;-58
2022/03/08 02:46:23;;;;;;;5.05;4.65;;;;;;;;;;4999932;28;20118;-58
2022/03/08 02:48:48;;;;;;;11.82;5.10;;;;;;;;;;5000459;28;20670;-58
2022/03/08 02:51:14;;;;;;;4.35;3.97;;;;;;;;;;4999480;28;20034;-58
2022/03/08 02:53:39;;;;;;;4.25;3.85;;;;;;;;;;5001141;28;20050;-58
2022/03/08 02:56:05;;;;;;;4.60;4.20;;;;;;;;;;5002547;28;20034;-58
2022/03/08 02:58:30;;;;;;;5.20;4.70;;;;;;;;;;5003075;28;20125;-58
2022/03/08 03:00:56;;;;;;;5.13;4.63;;;;;;;;;;5001720;28;20033;-58
2022/03/08 03:03:22;;;;;;;4.68;4.22;;;;;;;;;;5000297;28;20026;-58
2022/03/08 03:05:47;;;;;;;4.95;4.25;;;;;;;;;;4999703;28;20076;-58
2022/03/08 03:08:12;;;;;;;6.65;4.47;;;;;;;;;;5001307;28;20113;-58
2022/03/08 03:10:38;;;;;;;5.68;5.15;;;;;;;;;;5001163;28;20030;-58
2022/03/08 03:13:03;;;;;;;5.20;4.80;;;;;;;;;;4998658;28;20018;-58
2022/03/08 03:15:29;;;;;;;4.10;3.78;;;;;;;;;;5000929;28;20052;-58
2022/03/08 03:17:55;;;;;;;5.35;4.88;;;;;;;;;;5001130;28;20034;-58
2022/03/08 03:20:22;;;;;;;4.38;4.03;;;;;;;;;;5002105;28;20036;-58
2022/03/08 03:22:48;;;;;;;7.18;4.72;;;;;;;;;;5000256;28;20040;-57
2022/03/08 03:25:15;;;;;;;4.57;4.18;;;;;;;;;;5000590;28;20030;-58
2022/03/08 03:27:41;;;;;;;4.28;3.90;;;;;;;;;;5008517;28;20030;-58
2022/03/08 03:30:13;;;;;;;5.93;4.63;;;;;;;;;;5002505;28;20085;-58
2022/03/08 03:32:39;;;;;;;5.68;5.10;;;;;;;;;;5004158;28;20026;-59
2022/03/08 03:35:05;;;;;;;3.88;3.58;;;;;;;;;;5001599;28;20080;-59
2022/03/08 03:37:31;;;;;;;4.05;3.70;;;;;;;;;;4998977;28;20049;-59
2022/03/08 03:39:56;;;;;;;5.38;4.88;;;;;;;;;;5001723;28;20038;-59
2022/03/08 03:42:22;;;;;;;5.65;4.93;;;;;;;;;;5000858;28;20108;-59
2022/03/08 03:44:47;;;;;;;5.10;4.63;;;;;;;;;;5003361;28;20435;-59
2022/03/08 03:47:12;;;;;;;4.32;3.92;;;;;;;;;;5002269;28;20025;-59
2022/03/08 03:49:38;;;;;;;4.82;4.38;;;;;;;;;;4999887;28;20539;-59
2022/03/08 03:52:04;;;;;;;5.53;4.78;;;;;;;;;;5004782;28;20096;-59
2022/03/08 03:54:30;;;;;;;4.10;3.70;;;;;;;;;;5001753;28;20042;-59
2022/03/08 03:56:56;;;;;;;4.20;3.80;;;;;;;;;;5000308;28;20836;-58
2022/03/08 03:59:21;;;;;;;5.22;4.82;;;;;;;;;;4998387;28;20030;-58
2022/03/08 04:01:47;;;;;;;4.40;4.03;;;;;;;;;;5002468;28;20033;-59
2022/03/08 04:04:12;;;;;;;4.78;4.38;;;;;;;;;;5002589;28;20109;-59
2022/03/08 04:06:37;;;;;;;6.07;3.95;;;;;;;;;;4999325;28;20121;-59
2022/03/08 04:09:04;;;;;;;4.82;4.43;;;;;;;;;;4999751;28;20164;-59
2022/03/08 04:11:30;;;;;;;4.80;3.97;;;;;;;;;;4997888;28;20215;-59
2022/03/08 04:13:55;;;;;;;4.95;4.55;;;;;;;;;;4998874;28;20511;-59
2022/03/08 04:16:21;;;;;;;4.72;4.32;;;;;;;;;;4996933;28;20040;-58
2022/03/08 04:18:46;;;;;;;8.15;4.28;;;;;;;;;;5001475;28;20070;-59
2022/03/08 04:21:12;;;;;;;4.18;3.78;;;;;;;;;;5000618;28;20105;-59
2022/03/08 04:23:37;;;;;;;4.18;3.85;;;;;;;;;;4999969;28;20029;-59
2022/03/08 04:26:04;;;;;;;4.28;3.90;;;;;;;;;;5001021;28;20892;-59
2022/03/08 04:28:29;;;;;;;5.18;3.97;;;;;;;;;;4998972;28;20034;-59
2022/03/08 04:30:55;;;;;;;4.40;4.00;;;;;;;;;;5001101;28;20040;-59
2022/03/08 04:33:20;;;;;;;3.60;3.30;;;;;;;;;;5006618;28;20469;-59
2022/03/08 04:35:45;;;;;;;4.75;4.35;;;;;;;;;;5000405;28;20044;-59
2022/03/08 04:38:11;;;;;;;5.30;4.78;;;;;;;;;;5001736;28;20096;-56
2022/03/08 04:40:37;;;;;;;4.95;4.43;;;;;;;;;;5001124;28;20034;-59
2022/03/08 04:43:02;;;;;;;4.68;4.28;;;;;;;;;;4998626;28;20026;-58
2022/03/08 04:45:27;;;;;;;5.93;4.75;;;;;;;;;;4999001;28;20121;-59
2022/03/08 04:47:53;;;;;;;4.95;3.75;;;;;;;;;;4999266;28;20053;-58
2022/03/08 04:50:18;;;;;;;4.22;3.83;;;;;;;;;;5001427;28;20130;-59
2022/03/08 04:52:46;;;;;;;5.40;4.90;;;;;;;;;;4998678;28;20049;-59
2022/03/08 04:55:12;;;;;;;5.15;4.65;;;;;;;;;;4997096;28;20030;-59
2022/03/08 04:57:38;;;;;;;8.30;5.78;;;;;;;;;;4998282;28;20041;-58
2022/03/08 05:00:06;;;;;;;5.15;4.60;;;;;;;;;;4998688;28;20030;-60
2022/03/08 05:02:31;;;;;;;4.15;3.75;;;;;;;;;;4998958;28;20535;-59
2022/03/08 05:04:57;;;;;;;5.53;5.03;;;;;;;;;;4998478;28;20026;-59
2022/03/08 05:07:22;;;;;;;13.40;5.28;;;;;;;;;;4997857;28;20107;-58
2022/03/08 05:09:47;;;;;;;4.10;3.80;;;;;;;;;;4999963;28;20149;-59
2022/03/08 05:12:14;;;;;;;6.28;4.32;;;;;;;;;;4997489;28;20034;-59
2022/03/08 05:14:39;;;;;;;3.92;3.60;;;;;;;;;;4997520;28;20057;-59
2022/03/08 05:17:05;;;;;;;5.97;4.82;;;;;;;;;;4997389;28;20026;-58
2022/03/08 05:19:30;;;;;;;4.57;4.18;;;;;;;;;;4999194;28;20030;-58
2022/03/08 05:21:56;;;;;;;4.65;4.25;;;;;;;;;;5001639;28;20026;-59
2022/03/08 05:24:21;;;;;;;4.00;3.70;;;;;;;;;;5000515;28;20146;-58
2022/03/08 05:26:48;;;;;;;4.43;4.03;;;;;;;;;;4997359;28;20048;-66
2022/03/08 05:29:13;;;;;;;4.65;4.25;;;;;;;;;;4998668;28;20042;-65
2022/03/08 05:31:39;;;;;;;9.73;4.78;;;;;;;;;;5000030;28;20026;-67
2022/03/08 05:34:04;;;;;;;5.38;4.88;;;;;;;;;;5001536;28;20021;-59
2022/03/08 05:36:30;;;;;;;5.22;4.72;;;;;;;;;;5001826;28;20110;-66
2022/03/08 05:38:55;;;;;;;4.32;3.97;;;;;;;;;;4996811;28;20029;-65
2022/03/08 05:41:20;;;;;;;4.50;4.10;;;;;;;;;;5000120;28;20371;-66
2022/03/08 05:43:46;;;;;;;4.45;4.05;;;;;;;;;;4999884;28;20403;-66
2022/03/08 05:46:11;;;;;;;5.55;5.05;;;;;;;;;;4999770;28;20172;-66
2022/03/08 05:48:37;;;;;;;4.80;4.40;;;;;;;;;;5001333;28;20061;-66
2022/03/08 05:51:03;;;;;;;5.35;4.22;;;;;;;;;;5000925;28;20147;-66
2022/03/08 05:53:28;;;;;;;4.70;4.30;;;;;;;;;;4997788;28;20050;-67
2022/03/08 05:55:54;;;;;;;4.55;4.15;;;;;;;;;;4998885;28;20041;-59
2022/03/08 05:58:19;;;;;;;3.70;3.40;;;;;;;;;;4998940;28;20165;-66
2022/03/08 06:00:45;;;;;;;4.47;4.07;;;;;;;;;;5002309;28;20037;-59
2022/03/08 06:03:10;;;;;;;5.25;4.85;;;;;;;;;;4999002;28;20049;-60
2022/03/08 06:05:36;;;;;;;4.47;4.07;;;;;;;;;;4999133;28;20038;-60
2022/03/08 06:08:03;;;;;;;4.80;4.38;;;;;;;;;;5001089;28;20034;-66
2022/03/08 06:10:28;;;;;;;4.35;3.95;;;;;;;;;;5003679;28;20113;-60
2022/03/08 06:12:53;;;;;;;4.82;4.43;;;;;;;;;;5004609;28;20137;-59
2022/03/08 06:15:19;;;;;;;4.45;4.05;;;;;;;;;;5004274;28;20038;-66
2022/03/08 06:17:44;;;;;;;3.85;3.55;;;;;;;;;;5003743;28;20470;-66
2022/03/08 06:20:10;;;;;;;7.65;5.35;;;;;;;;;;5000689;28;20091;-66
2022/03/08 06:22:35;;;;;;;4.25;3.85;;;;;;;;;;5001477;28;20440;-64
2022/03/08 06:25:01;;;;;;;4.32;3.92;;;;;;;;;;5000899;28;20065;-63
2022/03/08 06:27:26;;;;;;;5.05;4.50;;;;;;;;;;5000589;28;20026;-63
2022/03/08 06:29:52;;;;;;;4.60;4.20;;;;;;;;;;5003092;28;20081;-63
2022/03/08 06:32:20;;;;;;;5.72;5.13;;;;;;;;;;5003739;28;20025;-63
2022/03/08 06:34:46;;;;;;;5.95;4.45;;;;;;;;;;5002363;28;20530;-63
2022/03/08 06:37:12;;;;;;;5.82;5.22;;;;;;;;;;5003145;28;20030;-63
2022/03/08 06:39:37;;;;;;;5.07;4.68;;;;;;;;;;5000409;28;20364;-63
2022/03/08 06:42:04;;;;;;;4.80;4.40;;;;;;;;;;5001351;28;20026;-58
2022/03/08 06:44:31;;;;;;;5.68;5.18;;;;;;;;;;5004356;28;20038;-60
2022/03/08 06:46:57;;;;;;;5.35;4.85;;;;;;;;;;5001692;28;20030;-59
2022/03/08 06:49:23;;;;;;;5.03;4.53;;;;;;;;;;5000957;28;20466;-60
2022/03/08 06:51:48;;;;;;;5.72;5.22;;;;;;;;;;5001575;28;20065;-58
2022/03/08 06:54:13;;;;;;;4.97;4.57;;;;;;;;;;5000345;28;20038;-59
2022/03/08 06:56:39;;;;;;;4.20;3.90;;;;;;;;;;5000556;28;20093;-60
2022/03/08 06:59:05;;;;;;;5.85;5.35;;;;;;;;;;4999560;28;20042;-58
2022/03/08 07:01:30;;;;;;;4.90;4.50;;;;;;;;;;4999490;28;20026;-58
2022/03/08 07:03:55;;;;;;;4.80;4.40;;;;;;;;;;4984329;28;20105;-59
2022/03/08 07:06:21;;;;;;;4.38;3.97;;;;;;;;;;5002800;28;20048;-58
2022/03/08 07:08:46;;;;;;;4.63;4.22;;;;;;;;;;5003586;28;20676;-58
2022/03/08 07:11:13;;;;;;;7.07;4.75;;;;;;;;;;4999790;28;20021;-58
2022/03/08 07:13:39;;;;;;;4.90;4.50;;;;;;;;;;5000655;28;20025;-64
2022/03/08 07:16:05;;;;;;;5.10;4.68;;;;;;;;;;5002754;28;20446;-63
2022/03/08 07:18:30;;;;;;;3.92;3.63;;;;;;;;;;4999281;28;20367;-63
2022/03/08 07:20:56;;;;;;;4.70;4.22;;;;;;;;;;4995191;28;20054;-64
2022/03/08 07:23:22;;;;;;;4.75;4.35;;;;;;;;;;4997522;28;20497;-64
2022/03/08 07:25:48;;;;;;;4.25;3.85;;;;;;;;;;5001106;28;20033;-64
2022/03/08 07:28:13;;;;;;;4.60;4.15;;;;;;;;;;5001965;28;20481;-57
2022/03/08 07:30:38;;;;;;;3.85;3.47;;;;;;;;;;5001389;28;20037;-59
2022/03/08 07:33:04;;;;;;;4.65;4.10;;;;;;;;;;5004122;28;20426;-58
2022/03/08 07:35:29;;;;;;;4.38;3.97;;;;;;;;;;5005238;28;20447;-59
2022/03/08 07:37:55;;;;;;;4.18;3.55;;;;;;;;;;4999681;28;20091;-59
2022/03/08 07:40:20;;;;;;;4.63;4.13;;;;;;;;;;5000204;28;20022;-58
2022/03/08 07:42:46;;;;;;;3.80;3.50;;;;;;;;;;5001442;28;20490;-60
2022/03/08 07:45:12;;;;;;;4.88;4.47;;;;;;;;;;4999000;28;20034;-64
2022/03/08 07:47:37;;;;;;;4.65;4.13;;;;;;;;;;4997955;28;20113;-63
2022/03/08 07:50:04;;;;;;;4.82;4.43;;;;;;;;;;4999082;28;20391;-63
2022/03/08 07:52:29;;;;;;;5.55;4.45;;;;;;;;;;5000867;28;20037;-59
2022/03/08 07:54:55;;;;;;;4.68;4.28;;;;;;;;;;4999850;28;20168;-59
2022/03/08 07:57:20;;;;;;;4.40;4.00;;;;;;;;;;5000958;28;20038;-59
2022/03/08 07:59:45;;;;;;;3.95;3.55;;;;;;;;;;4997024;28;20030;-58
2022/03/08 08:02:11;;;;;;;5.15;4.35;;;;;;;;;;5002493;28;20037;-61
2022/03/08 08:04:36;;;;;;;4.82;4.18;;;;;;;;;;5000429;28;20038;-62
2022/03/08 08:07:02;;;;;;;5.80;5.20;;;;;;;;;;4984376;28;20034;-61
2022/03/08 08:09:27;;;;;;;4.75;4.35;;;;;;;;;;4999006;28;20038;-61
2022/03/08 08:11:52;;;;;;;4.43;4.03;;;;;;;;;;4993485;28;20053;-60
2022/03/08 08:14:18;;;;;;;4.78;4.38;;;;;;;;;;4997967;28;20038;-61
2022/03/08 08:16:45;;;;;;;4.85;4.38;;;;;;;;;;4999679;28;20064;-60
2022/03/08 08:19:11;;;;;;;4.65;4.25;;;;;;;;;;5000139;28;20309;-61
2022/03/08 08:21:36;;;;;;;4.38;4.03;;;;;;;;;;5000247;28;20050;-62
2022/03/08 08:24:02;;;;;;;6.20;4.88;;;;;;;;;;5002075;28;20037;-63
2022/03/08 08:26:27;;;;;;;8.82;4.22;;;;;;;;;;5000067;28;20455;-63
2022/03/08 08:28:53;;;;;;;5.18;4.68;;;;;;;;;;4999061;28;20040;-62
2022/03/08 08:31:18;;;;;;;4.95;4.55;;;;;;;;;;4997774;28;20045;-62
2022/03/08 08:33:44;;;;;;;6.30;5.63;;;;;;;;;;5001284;28;20506;-63
2022/03/08 08:36:09;;;;;;;6.43;5.55;;;;;;;;;;5001680;28;20029;-62
2022/03/08 08:38:35;;;;;;;5.72;5.07;;;;;;;;;;5001156;28;20041;-61
2022/03/08 08:41:00;;;;;;;5.50;5.00;;;;;;;;;;5001280;28;20400;-61
2022/03/08 08:43:25;;;;;;;7.10;6.00;;;;;;;;;;5001097;28;20029;-61
2022/03/08 08:45:52;;;;;;;5.45;4.95;;;;;;;;;;4998529;28;20033;-62
2022/03/08 08:48:19;;;;;;;5.07;4.57;;;;;;;;;;4999699;28;20456;-61
2022/03/08 08:50:45;;;;;;;5.63;4.72;;;;;;;;;;5000292;28;20038;-60
2022/03/08 08:53:10;;;;;;;4.93;4.53;;;;;;;;;;4998728;28;20372;-62
2022/03/08 08:55:37;;;;;;;4.45;4.03;;;;;;;;;;4998203;28;20100;-62
2022/03/08 08:58:03;;;;;;;5.95;5.45;;;;;;;;;;5000251;28;20117;-60
2022/03/08 09:00:29;;;;;;;5.90;5.40;;;;;;;;;;4999410;28;20048;-62
2022/03/08 09:02:55;;;;;;;5.25;4.75;;;;;;;;;;4999192;28;20399;-61
2022/03/08 09:05:20;;;;;;;5.20;4.80;;;;;;;;;;4999779;28;20038;-61
2022/03/08 09:07:45;;;;;;;5.00;4.47;;;;;;;;;;4999748;28;20134;-61
2022/03/08 09:10:11;;;;;;;4.43;4.03;;;;;;;;;;4995518;28;20611;-61
2022/03/08 09:12:37;;;;;;;5.55;4.55;;;;;;;;;;4996417;28;20120;-62
2022/03/08 09:15:04;;;;;;;5.05;4.65;;;;;;;;;;5000833;28;20034;-62
2022/03/08 09:17:29;;;;;;;8.35;7.50;;;;;;;;;;5002229;28;20080;-62
2022/03/08 09:19:55;;;;;;;4.65;4.25;;;;;;;;;;4998738;28;20404;-61
2022/03/08 09:22:20;;;;;;;4.88;4.38;;;;;;;;;;5000107;28;20430;-59
2022/03/08 09:24:46;;;;;;;7.03;4.57;;;;;;;;;;5000799;28;20034;-60
2022/03/08 09:27:11;;;;;;;6.03;5.43;;;;;;;;;;4999952;28;20744;-61
2022/03/08 09:29:37;;;;;;;5.78;5.28;;;;;;;;;;5000000;28;20394;-60
2022/03/08 09:32:02;;;;;;;5.05;4.55;;;;;;;;;;5001183;28;20105;-61
2022/03/08 09:34:28;;;;;;;6.50;4.95;;;;;;;;;;5001450;28;20030;-61
2022/03/08 09:36:53;;;;;;;5.40;4.90;;;;;;;;;;5001690;28;20430;-62
2022/03/08 09:39:19;;;;;;;7.47;5.90;;;;;;;;;;4999661;28;20037;-62
2022/03/08 09:41:44;;;;;;;5.85;5.32;;;;;;;;;;5001056;28;20029;-62
2022/03/08 09:44:14;;;;;;;6.10;5.30;;;;;;;;;;5004942;28;20034;-62
2022/03/08 09:46:40;;;;;;;6.13;5.53;;;;;;;;;;5004665;28;20272;-63
2022/03/08 09:49:06;;;;;;;4.65;4.25;;;;;;;;;;5003562;28;20486;-63
2022/03/08 09:51:31;;;;;;;5.05;4.60;;;;;;;;;;5004941;28;20042;-62
2022/03/08 09:53:57;;;;;;;7.03;5.78;;;;;;;;;;5003909;28;20489;-63
2022/03/08 09:56:22;;;;;;;5.68;5.18;;;;;;;;;;5005600;28;20100;-63
2022/03/08 09:58:48;;;;;;;5.25;4.20;;;;;;;;;;5003005;28;20025;-62
2022/03/08 10:01:14;;;;;;;6.80;5.18;;;;;;;;;;5004779;28;20061;-62
2022/03/08 10:03:43;;;;;;;6.00;4.82;;;;;;;;;;5003764;28;20042;-62
2022/03/08 10:06:10;;;;;;;4.72;4.32;;;;;;;;;;5018921;28;20328;-62
2022/03/08 10:08:36;;;;;;;5.43;4.93;;;;;;;;;;5004906;28;20038;-63
2022/03/08 10:11:07;;;;;;;5.43;4.93;;;;;;;;;;5004390;28;20080;-62
2022/03/08 10:13:40;;;;;;;5.82;5.18;;;;;;;;;;4998509;28;20045;-61
2022/03/08 10:16:12;;;;;;;6.78;4.78;;;;;;;;;;5000221;28;20034;-62
2022/03/08 10:18:41;;;;;;;7.18;4.28;;;;;;;;;;5003288;28;20041;-64
2022/03/08 10:21:25;;;;;;;4.68;4.28;;;;;;;;;;5002216;28;20402;-62
2022/03/08 10:23:52;;;;;;;4.65;4.25;;;;;;;;;;5003354;28;20173;-63
2022/03/08 10:26:19;;;;;;;5.07;4.68;;;;;;;;;;5002864;28;20072;-62
2022/03/08 10:28:46;;;;;;;5.22;4.82;;;;;;;;;;5004125;28;20049;-62
2022/03/08 10:31:13;;;;;;;4.90;4.50;;;;;;;;;;5001909;28;20034;-62
2022/03/08 10:33:39;;;;;;;4.72;4.32;;;;;;;;;;5002956;28;20140;-62
2022/03/08 10:36:17;;;;;;;5.07;4.68;;;;;;;;;;5003297;28;20040;-63
2022/03/08 10:39:07;;;;;;;5.90;5.10;;;;;;;;;;5003008;28;20042;-62
2022/03/08 10:41:37;;;;;;;4.97;4.57;;;;;;;;;;5001407;28;20038;-62
2022/03/08 10:44:03;;;;;;;5.60;5.10;;;;;;;;;;5000148;28;20371;-62
2022/03/08 10:46:28;;;;;;;4.88;4.47;;;;;;;;;;5003510;28;20042;-61
2022/03/08 10:48:54;;;;;;;5.15;4.75;;;;;;;;;;5001037;28;20030;-61
2022/03/08 10:51:20;;;;;;;4.95;4.55;;;;;;;;;;5001917;28;20044;-61
2022/03/08 10:53:46;;;;;;;4.53;4.15;;;;;;;;;;5001241;28;20041;-62
2022/03/08 10:56:19;;;;;;;5.93;5.43;;;;;;;;;;5001054;28;20532;-61
2022/03/08 10:58:52;;;;;;;5.15;4.65;;;;;;;;;;5002518;28;20033;-62
2022/03/08 11:01:18;;;;;;;5.50;4.95;;;;;;;;;;5001251;28;20049;-62
2022/03/08 11:03:57;;;;;;;8.73;7.82;;;;;;;;;;5003336;28;20030;-61
2022/03/08 11:06:25;;;;;;;11.27;6.68;;;;;;;;;;5002733;28;20059;-61
2022/03/08 11:08:52;;;;;;;8.90;7.50;;;;;;;;;;5001091;28;20025;-61
2022/03/08 11:11:21;;;;;;;5.43;5.03;;;;;;;;;;5003582;28;20072;-61
2022/03/08 11:13:51;;;;;;;6.72;6.13;;;;;;;;;;5001055;28;20057;-61
2022/03/08 11:16:18;;;;;;;6.45;5.95;;;;;;;;;;4999606;28;20046;-61
2022/03/08 11:18:47;;;;;;;6.05;5.65;;;;;;;;;;5001951;28;20038;-61
2022/03/08 11:21:14;;;;;;;7.93;6.20;;;;;;;;;;5001093;28;20132;-61
2022/03/08 11:23:42;;;;;;;6.10;5.70;;;;;;;;;;4998227;28;20025;-61
2022/03/08 11:26:10;;;;;;;6.35;5.85;;;;;;;;;;5000470;28;20557;-61
2022/03/08 11:28:37;;;;;;;5.80;5.40;;;;;;;;;;5001906;28;20117;-61
2022/03/08 11:31:03;;;;;;;6.25;5.80;;;;;;;;;;5001399;28;20045;-61
2022/03/08 11:34:06;;;;;;;6.90;6.22;;;;;;;;;;5003706;28;20045;-62
2022/03/08 11:37:20;;;;;;;6.90;6.35;;;;;;;;;;5002744;28;20041;-62
2022/03/08 11:40:10;;;;;;;7.38;6.55;;;;;;;;;;4941730;29;20417;-61
2022/03/08 11:42:41;;;;;;;6.93;6.40;;;;;;;;;;4993848;28;20700;-61
2022/03/08 11:45:11;;;;;;;6.18;5.68;;;;;;;;;;5000969;28;20145;-61
2022/03/08 11:47:42;;;;;;;5.68;5.28;;;;;;;;;;5001347;28;20040;-61
2022/03/08 11:50:17;;;;;;;;;;;;;;;;;;5002176;28;20058;-61
2022/03/08 11:52:42;;;;;;;6.80;6.15;;;;;;;;;;5000423;28;19917;-60
2022/03/08 11:55:12;;;;;;;6.28;5.78;;;;;;;;;;5001584;28;20481;-61
2022/03/08 11:57:50;;;;;;;5.95;5.55;;;;;;;;;;5002506;28;20083;-60
2022/03/08 12:00:33;;;;;;;5.47;5.07;;;;;;;;;;5001214;28;20029;-60
2022/03/08 12:03:05;;;;;;;5.57;5.18;;;;;;;;;;5001451;28;20088;-61
2022/03/08 12:05:49;;;;;;;6.13;5.63;;;;;;;;;;5002134;28;20041;-60
2022/03/08 12:08:29;;;;;;;14.00;10.75;;;;;;;;;;5001496;28;20022;-61
2022/03/08 12:10:58;;;;;;;11.73;10.55;;;;;;;;;;4999524;28;20038;-61
2022/03/08 12:13:35;;;;;;;9.25;8.30;;;;;;;;;;5001082;28;20445;-61
2022/03/08 12:16:09;;;;;;;17.55;8.35;;;;;;;;;;4997274;28;20245;-61
2022/03/08 12:18:53;;;;;;;10.00;8.88;;;;;;;;;;5000474;28;20046;-61
2022/03/08 12:21:19;;;;;;;10.27;7.03;;;;;;;;;;5001435;28;20371;-63
2022/03/08 12:24:05;;;;;;;9.27;7.68;;;;;;;;;;5000805;28;20040;-64
2022/03/08 12:26:59;;;;;;;6.53;6.03;;;;;;;;;;5002957;28;20050;-63
2022/03/08 12:29:24;;;;;;;11.35;9.50;;;;;;;;;;5000898;28;20033;-64
2022/03/08 12:31:55;;;;;;;9.23;8.27;;;;;;;;;;5001991;28;20057;-62
2022/03/08 12:34:42;;;;;;;7.63;7.03;;;;;;;;;;5000844;28;20051;-62
2022/03/08 12:37:14;;;;;;;6.43;5.93;;;;;;;;;;5000853;28;20037;-61
2022/03/08 12:39:53;;;;;;;6.55;5.97;;;;;;;;;;4998542;28;20052;-62
2022/03/08 12:42:28;;;;;;;7.20;6.50;;;;;;;;;;5002218;28;20494;-63
2022/03/08 12:45:09;;;;;;;6.95;6.35;;;;;;;;;;4999717;28;20041;-63
2022/03/08 12:47:47;;;;;;;8.38;6.13;;;;;;;;;;4999576;28;20038;-63
2022/03/08 12:50:17;;;;;;;5.88;5.45;;;;;;;;;;5000777;28;20363;-62
2022/03/08 12:52:52;;;;;;;6.47;5.97;;;;;;;;;;4998785;28;20037;-63
2022/03/08 12:55:30;;;;;;;7.40;6.80;;;;;;;;;;5000753;28;20034;-62
2022/03/08 12:58:13;;;;;;;24.88;6.50;;;;;;;;;;4998112;28;20041;-62
2022/03/08 13:01:01;;;;;;;7.13;6.60;;;;;;;;;;4999300;28;20451;-62
2022/03/08 13:03:35;;;;;;;6.40;5.90;;;;;;;;;;5001675;28;20530;-63
2022/03/08 13:06:04;;;;;;;6.75;6.20;;;;;;;;;;4999900;28;20037;-62
2022/03/08 13:08:32;;;;;;;5.78;5.30;;;;;;;;;;4999128;28;20051;-63
2022/03/08 13:10:59;;;;;;;5.43;5.03;;;;;;;;;;5000056;28;20132;-63
2022/03/08 13:13:25;;;;;;;6.45;5.95;;;;;;;;;;4999365;28;20163;-61
2022/03/08 13:15:51;;;;;;;6.85;6.25;;;;;;;;;;4998854;28;21691;-61
2022/03/08 13:18:28;;;;;;;6.45;5.88;;;;;;;;;;4996265;28;20033;-60
2022/03/08 13:20:59;;;;;;;6.25;5.75;;;;;;;;;;4998141;28;20065;-60
2022/03/08 13:23:27;;;;;;;6.13;5.55;;;;;;;;;;4999616;28;20100;-60
2022/03/08 13:25:57;;;;;;;7.03;6.53;;;;;;;;;;5000703;28;20030;-61
2022/03/08 13:28:23;;;;;;;7.70;6.95;;;;;;;;;;5000852;28;20037;-60
2022/03/08 13:30:54;;;;;;;7.35;6.75;;;;;;;;;;4984978;28;20030;-63
2022/03/08 13:33:21;;;;;;;6.57;5.97;;;;;;;;;;4999695;28;20508;-61
2022/03/08 13:36:04;;;;;;;7.38;6.68;;;;;;;;;;5001561;28;20042;-61
2022/03/08 13:38:41;;;;;;;11.57;6.45;;;;;;;;;;4997922;28;20379;-63
2022/03/08 13:41:13;;;;;;;5.72;5.32;;;;;;;;;;5000632;28;20157;-61
2022/03/08 13:43:41;;;;;;;5.88;5.43;;;;;;;;;;4999682;28;20133;-63
2022/03/08 13:46:11;;;;;;;7.18;6.57;;;;;;;;;;4998687;28;20030;-62
2022/03/08 13:48:42;;;;;;;6.78;6.20;;;;;;;;;;5001540;28;20030;-63
2022/03/08 13:51:09;;;;;;;6.05;5.55;;;;;;;;;;5000640;28;20529;-62
2022/03/08 13:53:35;;;;;;;5.78;5.35;;;;;;;;;;4997853;28;20034;-62
2022/03/08 13:56:02;;;;;;;6.47;5.97;;;;;;;;;;4999242;28;20034;-61
2022/03/08 13:58:33;;;;;;;6.25;5.75;;;;;;;;;;4999414;28;20057;-61
2022/03/08 14:00:59;;;;;;;;;;;;;;;;;;5000292;28;20026;-63
2022/03/08 14:03:25;;;;;;;6.90;6.28;;;;;;;;;;4999428;28;19940;-62
2022/03/08 14:05:59;;;;;;;7.20;6.60;;;;;;;;;;4999274;28;20041;-63
2022/03/08 14:08:31;;;;;;;6.75;6.15;;;;;;;;;;4998936;28;20099;-60
2022/03/08 14:10:57;;;;;;;;;;;;;;;;;;5000039;28;20041;-61
2022/03/08 14:13:23;;;;;;;6.75;6.03;;;;;;;;;;4998529;28;19924;-61
2022/03/08 14:16:04;;;;;;;14.27;12.80;;;;;;;;;;4998096;28;20048;-61
2022/03/08 14:18:30;;;;;;;11.63;10.43;;;;;;;;;;4997827;28;20044;-61
2022/03/08 14:20:57;;;;;;;7.30;6.60;;;;;;;;;;4999676;28;20041;-62
2022/03/08 14:23:24;;;;;;;7.68;6.75;;;;;;;;;;4999303;28;20509;-60
2022/03/08 14:26:02;;;;;;;6.43;5.93;;;;;;;;;;4999565;28;20033;-62
2022/03/08 14:28:47;;;;;;;6.30;5.70;;;;;;;;;;5001372;28;20132;-63
2022/03/08 14:31:19;;;;;;;6.65;6.07;;;;;;;;;;5003426;28;20582;-64
2022/03/08 14:33:51;;;;;;;6.55;6.05;;;;;;;;;;5002757;28;20142;-63
2022/03/08 14:36:51;;;;;;;5.65;5.15;;;;;;;;;;5003559;28;20042;-64
2022/03/08 14:39:31;;;;;;;7.10;5.60;;;;;;;;;;5002450;28;20030;-63
2022/03/08 14:42:07;;;;;;;5.63;5.13;;;;;;;;;;5003361;28;20080;-60
2022/03/08 14:44:36;;;;;;;6.13;5.63;;;;;;;;;;5003184;28;20049;-60
2022/03/08 14:47:04;;;;;;;6.10;5.60;;;;;;;;;;5003582;28;20049;-63